Time;durP1;ratioP1;P1;durP2;ratioP2;P2;SDS_P1;SDS_P2;PMS_P1;PMS_P2;Temp;Humidity;BMP_temperature;BMP_pressure;BME280_temperature;BME280_humidity;BME280_pressure;Samples;Min_cycle;Max_cycle;Signal;HPM_P1;HPM_P2
2023/01/20 00:01:10;;;;;;;6.65;2.35;;;0.70;99.90;;;;;;5034344;28;20509;-63
2023/01/20 00:03:37;;;;;;;5.82;2.75;;;0.70;99.90;;;;;;5050414;28;20078;-63
2023/01/20 00:06:03;;;;;;;5.45;2.65;;;0.80;99.90;;;;;;5052850;28;20049;-62
2023/01/20 00:08:29;;;;;;;5.32;2.35;;;0.70;99.90;;;;;;5034295;28;20530;-62
2023/01/20 00:10:55;;;;;;;5.40;2.00;;;0.70;99.90;;;;;;5050378;28;20073;-62
2023/01/20 00:13:20;;;;;;;6.50;2.78;;;0.70;99.90;;;;;;5052087;28;20048;-63
2023/01/20 00:15:47;;;;;;;6.55;2.65;;;0.70;99.90;;;;;;5051082;28;20069;-62
2023/01/20 00:18:13;;;;;;;4.65;2.28;;;0.70;99.90;;;;;;5049837;28;20496;-62
2023/01/20 00:20:39;;;;;;;5.82;2.22;;;0.70;99.90;;;;;;5052221;28;20044;-62
2023/01/20 00:23:04;;;;;;;4.95;2.60;;;0.60;99.90;;;;;;5033905;28;20129;-62
2023/01/20 00:25:30;;;;;;;5.57;2.85;;;0.60;99.90;;;;;;5051270;28;20090;-62
2023/01/20 00:27:56;;;;;;;6.63;3.33;;;0.60;99.90;;;;;;5034381;28;20040;-62
2023/01/20 00:30:21;;;;;;;5.57;2.45;;;0.60;99.90;;;;;;5050329;28;20044;-63
2023/01/20 00:32:47;;;;;;;6.28;2.70;;;0.50;99.90;;;;;;5033810;28;20037;-63
2023/01/20 00:35:13;;;;;;;4.70;2.42;;;0.50;99.90;;;;;;5050248;28;20408;-63
2023/01/20 00:37:39;;;;;;;6.63;3.10;;;0.50;99.90;;;;;;5050934;28;20044;-63
2023/01/20 00:40:05;;;;;;;6.70;3.03;;;0.50;99.90;;;;;;5049662;28;20102;-63
2023/01/20 00:42:31;;;;;;;6.90;3.85;;;0.40;99.90;;;;;;5050889;28;20048;-62
2023/01/20 00:44:57;;;;;;;5.93;3.40;;;0.50;99.90;;;;;;5051070;28;20048;-62
2023/01/20 00:47:23;;;;;;;8.55;3.03;;;0.40;99.90;;;;;;5054355;28;20037;-62
2023/01/20 00:49:49;;;;;;;6.10;3.25;;;0.40;99.90;;;;;;5054848;28;20082;-62
2023/01/20 00:52:17;;;;;;;6.68;3.45;;;0.40;99.90;;;;;;5055280;28;20432;-62
2023/01/20 00:54:44;;;;;;;8.55;4.05;;;0.40;99.90;;;;;;5055332;28;20401;-62
2023/01/20 00:57:10;;;;;;;6.72;4.40;;;0.40;99.90;;;;;;5054230;28;20048;-63
2023/01/20 00:59:35;;;;;;;9.80;4.30;;;0.30;99.90;;;;;;5038286;28;20049;-62
2023/01/20 01:02:01;;;;;;;8.73;4.78;;;0.30;99.90;;;;;;5053761;28;20049;-62
2023/01/20 01:04:27;;;;;;;7.68;4.40;;;0.30;99.90;;;;;;5053896;28;20037;-63
2023/01/20 01:06:53;;;;;;;8.02;4.43;;;0.30;99.90;;;;;;5054828;28;20043;-63
2023/01/20 01:09:20;;;;;;;7.18;4.50;;;0.30;99.90;;;;;;5053854;28;20041;-63
2023/01/20 01:11:49;;;;;;;7.07;4.07;;;0.30;99.90;;;;;;5055846;28;20041;-62
2023/01/20 01:14:15;;;;;;;7.63;4.13;;;0.30;99.90;;;;;;5036294;28;20072;-62
2023/01/20 01:16:41;;;;;;;9.13;5.22;;;0.30;99.90;;;;;;5054427;28;20033;-62
2023/01/20 01:19:07;;;;;;;10.88;4.70;;;0.30;99.90;;;;;;5053603;28;20099;-62
2023/01/20 01:21:33;;;;;;;10.30;5.70;;;0.30;99.90;;;;;;5053466;28;20132;-62
2023/01/20 01:23:59;;;;;;;8.80;5.13;;;0.20;99.90;;;;;;5037393;28;20465;-62
2023/01/20 01:26:25;;;;;;;11.02;6.13;;;0.30;99.90;;;;;;5053582;28;20045;-62
2023/01/20 01:28:50;;;;;;;10.65;6.40;;;0.20;99.90;;;;;;5053389;28;20099;-63
2023/01/20 01:31:20;;;;;;;10.45;6.18;;;0.20;99.90;;;;;;5054805;28;20029;-62
2023/01/20 01:33:47;;;;;;;9.55;6.22;;;0.20;99.90;;;;;;5053775;28;20052;-63
2023/01/20 01:36:15;;;;;;;10.48;6.25;;;0.20;99.90;;;;;;5052681;28;20124;-62
2023/01/20 01:38:42;;;;;;;9.98;6.47;;;0.20;99.90;;;;;;5054118;28;20044;-62
2023/01/20 01:41:12;;;;;;;9.73;6.40;;;0.20;99.90;;;;;;5054755;28;20041;-62
2023/01/20 01:43:39;;;;;;;10.52;6.40;;;0.20;99.90;;;;;;5053401;28;20040;-62
2023/01/20 01:46:06;;;;;;;12.05;7.53;;;0.10;99.90;;;;;;5053249;28;20033;-63
2023/01/20 01:48:36;;;;;;;12.10;7.35;;;0.10;99.90;;;;;;5054313;28;20401;-62
2023/01/20 01:51:26;;;;;;;8.98;5.82;;;0.20;99.90;;;;;;5054380;28;20495;-63
2023/01/20 01:54:04;;;;;;;10.18;6.50;;;0.10;99.90;;;;;;5053785;28;20045;-63
2023/01/20 01:56:31;;;;;;;13.98;7.07;;;0.10;99.90;;;;;;5052331;28;20068;-62
2023/01/20 01:59:00;;;;;;;10.68;6.88;;;0.10;99.90;;;;;;5055009;28;20048;-62
2023/01/20 02:01:26;;;;;;;12.48;7.00;;;0.10;99.90;;;;;;5052876;28;20045;-62
2023/01/20 02:04:07;;;;;;;10.93;6.90;;;0.10;99.90;;;;;;5052564;28;20048;-62
2023/01/20 02:06:36;;;;;;;10.05;5.82;;;0.10;99.90;;;;;;5054649;28;20044;-63
2023/01/20 02:09:03;;;;;;;10.23;6.00;;;0.10;99.90;;;;;;5052903;28;20048;-62
2023/01/20 02:11:35;;;;;;;10.90;6.40;;;0.10;99.90;;;;;;5052016;28;20122;-63
2023/01/20 02:14:01;;;;;;;11.10;6.93;;;0.00;99.90;;;;;;5053267;28;20123;-62
2023/01/20 02:16:54;;;;;;;8.68;5.68;;;0.00;99.90;;;;;;5052836;28;20064;-62
2023/01/20 02:19:50;;;;;;;10.80;6.20;;;0.10;99.90;;;;;;5053161;28;20051;-62
2023/01/20 02:22:34;;;;;;;10.18;5.53;;;0.10;99.90;;;;;;5052448;28;20081;-62
2023/01/20 02:25:26;;;;;;;8.45;5.47;;;0.10;99.90;;;;;;5052143;28;20041;-63
2023/01/20 02:28:13;;;;;;;8.98;5.07;;;0.10;99.90;;;;;;5052393;28;20091;-63
2023/01/20 02:30:56;;;;;;;8.35;4.57;;;0.10;99.90;;;;;;5054263;28;20126;-63
2023/01/20 02:33:35;;;;;;;8.98;4.72;;;0.10;99.90;;;;;;5052788;28;20041;-63
2023/01/20 02:36:18;;;;;;;9.93;5.30;;;0.10;99.90;;;;;;5053743;28;20456;-63
2023/01/20 02:38:47;;;;;;;7.47;4.40;;;0.10;99.90;;;;;;5052116;28;20045;-63
2023/01/20 02:41:30;;;;;;;8.35;4.60;;;0.10;99.90;;;;;;5052105;28;20045;-63
2023/01/20 02:44:18;;;;;;;7.57;4.57;;;0.10;99.90;;;;;;5052874;28;20489;-63
2023/01/20 02:46:57;;;;;;;8.10;4.60;;;0.10;99.90;;;;;;5051938;28;20072;-63
2023/01/20 02:49:38;;;;;;;8.65;5.30;;;0.10;99.90;;;;;;5035353;28;20052;-63
2023/01/20 02:52:32;;;;;;;12.35;5.10;;;0.10;99.90;;;;;;5053829;28;20036;-62
2023/01/20 02:55:06;;;;;;;8.52;4.75;;;0.10;99.90;;;;;;5050878;28;20057;-63
2023/01/20 02:57:39;;;;;;;10.48;5.05;;;0.10;99.90;;;;;;5053912;28;20048;-63
2023/01/20 03:00:21;;;;;;;9.82;5.60;;;0.10;99.90;;;;;;5050952;28;20055;-63
2023/01/20 03:02:49;;;;;;;8.88;5.10;;;0.10;99.90;;;;;;5052615;28;20041;-63
2023/01/20 03:05:21;;;;;;;7.85;4.85;;;0.10;99.90;;;;;;5051608;28;20394;-63
2023/01/20 03:07:51;;;;;;;9.40;5.38;;;0.10;99.90;;;;;;5051379;28;20049;-63
2023/01/20 03:10:20;;;;;;;10.02;5.25;;;0.00;99.90;;;;;;5051147;28;20041;-63
2023/01/20 03:12:52;;;;;;;8.68;5.60;;;0.00;99.90;;;;;;5052324;28;20132;-63
2023/01/20 03:15:22;;;;;;;11.82;5.95;;;0.00;99.90;;;;;;5052053;28;20454;-63
2023/01/20 03:17:48;;;;;;;10.05;5.25;;;0.00;99.90;;;;;;5035559;28;20424;-63
2023/01/20 03:20:14;;;;;;;10.65;6.00;;;0.10;99.90;;;;;;5051340;28;20098;-63
2023/01/20 03:22:40;;;;;;;8.57;5.18;;;0.00;99.90;;;;;;5052614;28;20041;-63
2023/01/20 03:25:08;;;;;;;9.38;5.20;;;0.10;99.90;;;;;;5051268;28;20120;-63
2023/01/20 03:27:34;;;;;;;9.55;5.63;;;0.00;99.90;;;;;;5052536;28;20037;-63
2023/01/20 03:29:59;;;;;;;11.90;6.22;;;0.10;99.90;;;;;;5053208;28;20060;-63
2023/01/20 03:32:25;;;;;;;9.32;5.35;;;0.10;99.90;;;;;;5052251;28;20097;-63
2023/01/20 03:34:54;;;;;;;11.18;6.40;;;0.10;99.90;;;;;;5034150;28;20048;-63
2023/01/20 03:37:21;;;;;;;11.32;6.53;;;0.10;99.90;;;;;;5052590;28;20378;-63
2023/01/20 03:39:46;;;;;;;12.40;7.97;;;0.10;99.90;;;;;;5051826;28;20444;-63
2023/01/20 03:42:21;;;;;;;13.13;7.55;;;0.10;99.90;;;;;;5051610;28;20041;-63
2023/01/20 03:45:04;;;;;;;13.98;8.00;;;0.10;99.90;;;;;;5051659;28;20036;-63
2023/01/20 03:47:51;;;;;;;12.10;7.82;;;0.10;99.90;;;;;;5051764;28;20405;-63
2023/01/20 03:50:28;;;;;;;16.73;10.05;;;0.10;99.90;;;;;;5050268;28;20033;-63
2023/01/20 03:53:05;;;;;;;13.70;8.30;;;0.10;99.90;;;;;;5035075;28;20116;-63
2023/01/20 03:56:03;;;;;;;13.57;8.60;;;0.10;99.90;;;;;;5051449;28;20041;-63
2023/01/20 03:58:31;;;;;;;15.82;9.48;;;0.10;99.90;;;;;;5047596;28;20137;-63
2023/01/20 04:00:59;;;;;;;15.20;8.63;;;0.10;99.90;;;;;;5051391;28;20370;-63
2023/01/20 04:03:35;;;;;;;17.27;10.55;;;0.10;99.90;;;;;;5049949;28;20048;-63
2023/01/20 04:06:05;;;;;;;14.93;9.65;;;0.00;99.90;;;;;;5051437;28;20083;-63
2023/01/20 04:08:36;;;;;;;16.02;10.32;;;0.00;99.90;;;;;;5051347;28;20041;-63
2023/01/20 04:11:06;;;;;;;18.23;10.63;;;0.00;99.90;;;;;;5050319;28;20219;-63
2023/01/20 04:13:33;;;;;;;17.70;11.30;;;0.00;99.90;;;;;;5051130;28;20040;-63
2023/01/20 04:16:00;;;;;;;19.08;11.93;;;0.00;99.90;;;;;;5051283;28;20445;-63
2023/01/20 04:18:26;;;;;;;18.95;12.05;;;0.00;99.90;;;;;;5050869;28;20045;-63
2023/01/20 04:21:02;;;;;;;19.98;12.75;;;0.00;99.90;;;;;;5050922;28;20041;-64
2023/01/20 04:23:34;;;;;;;19.10;11.93;;;0.00;99.90;;;;;;5050504;28;20082;-63
2023/01/20 04:26:00;;;;;;;21.55;13.30;;;0.00;99.90;;;;;;5051399;28;20041;-63
2023/01/20 04:28:26;;;;;;;23.75;13.65;;;0.00;99.90;;;;;;5050709;28;20124;-63
2023/01/20 04:30:52;;;;;;;22.05;13.10;;;0.00;99.90;;;;;;5051353;28;20063;-63
2023/01/20 04:33:17;;;;;;;22.77;14.25;;;0.00;99.90;;;;;;5050403;28;20045;-64
2023/01/20 04:35:43;;;;;;;21.63;13.30;;;-0.10;99.90;;;;;;5050809;28;20110;-63
2023/01/20 04:38:09;;;;;;;21.15;13.38;;;0.00;99.90;;;;;;5033076;28;20045;-63
2023/01/20 04:40:34;;;;;;;23.65;14.23;;;0.00;99.90;;;;;;5052035;28;20036;-63
2023/01/20 04:43:00;;;;;;;22.13;13.88;;;0.00;99.90;;;;;;5050989;28;20041;-63
2023/01/20 04:45:26;;;;;;;21.08;13.27;;;-0.10;99.90;;;;;;5049414;28;20076;-63
2023/01/20 04:47:52;;;;;;;21.55;13.15;;;-0.10;99.90;;;;;;5052019;28;20083;-63
2023/01/20 04:50:17;;;;;;;19.35;12.88;;;0.00;99.90;;;;;;5050314;28;20088;-63
2023/01/20 04:52:43;;;;;;;20.30;13.02;;;0.00;99.90;;;;;;5051372;28;20048;-63
2023/01/20 04:55:10;;;;;;;23.73;14.85;;;0.00;99.90;;;;;;5050323;28;20120;-63
2023/01/20 04:57:36;;;;;;;24.30;15.35;;;0.00;99.90;;;;;;5033953;28;20490;-63
2023/01/20 05:00:04;;;;;;;27.10;15.93;;;0.00;99.90;;;;;;5033228;28;20048;-63
2023/01/20 05:02:29;;;;;;;25.30;15.05;;;0.00;99.90;;;;;;5050253;28;20048;-63
2023/01/20 05:04:55;;;;;;;24.15;14.63;;;0.10;99.90;;;;;;5050461;28;20049;-63
2023/01/20 05:07:21;;;;;;;29.75;16.33;;;0.10;99.90;;;;;;5050654;28;20047;-63
2023/01/20 05:09:46;;;;;;;24.42;15.52;;;0.10;99.90;;;;;;5050605;28;20389;-63
2023/01/20 05:12:12;;;;;;;26.30;14.85;;;0.10;99.90;;;;;;5051310;28;20401;-63
2023/01/20 05:14:38;;;;;;;28.23;16.15;;;0.10;99.90;;;;;;5049680;28;20041;-63
2023/01/20 05:17:03;;;;;;;29.00;18.25;;;0.10;99.90;;;;;;5050598;28;20444;-63
2023/01/20 05:19:29;;;;;;;31.98;16.98;;;0.20;99.90;;;;;;5050163;28;20045;-63
2023/01/20 05:21:54;;;;;;;36.30;17.77;;;0.10;99.90;;;;;;5033101;28;20400;-63
2023/01/20 05:24:20;;;;;;;47.53;19.60;;;0.20;99.90;;;;;;5049771;28;20041;-63
2023/01/20 05:26:51;;;;;;;45.80;18.55;;;0.20;99.90;;;;;;5050547;28;20087;-63
2023/01/20 05:29:17;;;;;;;56.60;22.42;;;0.20;99.90;;;;;;5050043;28;20443;-63
2023/01/20 05:31:43;;;;;;;50.70;21.63;;;0.30;99.90;;;;;;5051351;28;20040;-63
2023/01/20 05:34:10;;;;;;;49.95;20.55;;;0.30;99.90;;;;;;5036170;28;20057;-63
2023/01/20 05:36:35;;;;;;;48.70;20.48;;;0.30;99.90;;;;;;5037444;28;20056;-63
2023/01/20 05:39:01;;;;;;;51.42;20.60;;;0.30;99.90;;;;;;5054148;28;20374;-63
2023/01/20 05:41:27;;;;;;;51.42;20.73;;;0.40;99.90;;;;;;5036184;28;20045;-63
2023/01/20 05:43:53;;;;;;;74.72;25.63;;;0.30;99.90;;;;;;5053453;28;20041;-63
2023/01/20 05:46:19;;;;;;;79.93;26.65;;;0.40;99.90;;;;;;5053260;28;20048;-63
2023/01/20 05:48:45;;;;;;;86.80;27.10;;;0.40;99.90;;;;;;5054366;28;20028;-63
2023/01/20 05:51:11;;;;;;;61.67;24.95;;;0.40;99.90;;;;;;5054490;28;20480;-63
2023/01/20 05:53:36;;;;;;;54.05;23.15;;;0.30;99.90;;;;;;5054747;28;20044;-63
2023/01/20 05:56:04;;;;;;;79.28;24.73;;;0.40;99.90;;;;;;5053072;28;20055;-63
2023/01/20 05:58:30;;;;;;;55.00;21.98;;;0.40;99.90;;;;;;5036758;28;20048;-63
2023/01/20 06:01:07;;;;;;;62.92;24.80;;;0.40;99.90;;;;;;5054975;28;20394;-63
2023/01/20 06:03:33;;;;;;;106.80;26.77;;;0.40;99.90;;;;;;5054184;28;20032;-63
2023/01/20 06:06:04;;;;;;;66.63;24.30;;;0.40;99.90;;;;;;5036714;28;20045;-63
2023/01/20 06:08:30;;;;;;;67.32;23.50;;;0.40;99.90;;;;;;5053499;28;20029;-63
2023/01/20 06:10:56;;;;;;;45.30;20.00;;;0.40;99.90;;;;;;5035896;28;20041;-63
2023/01/20 06:13:21;;;;;;;52.47;20.88;;;0.40;99.90;;;;;;5052666;28;20083;-63
2023/01/20 06:15:52;;;;;;;84.00;30.13;;;0.40;99.90;;;;;;5053456;28;20044;-63
2023/01/20 06:18:19;;;;;;;61.08;24.50;;;0.40;99.90;;;;;;5051940;28;20044;-63
2023/01/20 06:20:44;;;;;;;56.15;22.95;;;0.40;99.90;;;;;;5053547;28;20053;-63
2023/01/20 06:23:10;;;;;;;46.45;22.05;;;0.40;99.90;;;;;;5052733;28;20039;-63
2023/01/20 06:25:36;;;;;;;80.70;29.30;;;0.40;99.90;;;;;;5053860;28;20049;-63
2023/01/20 06:28:01;;;;;;;52.92;24.13;;;0.40;99.90;;;;;;5052918;28;20389;-62
2023/01/20 06:30:27;;;;;;;45.65;23.40;;;0.40;99.90;;;;;;5051732;28;20041;-63
2023/01/20 06:32:53;;;;;;;47.72;24.23;;;0.40;99.90;;;;;;5053011;28;20119;-63
2023/01/20 06:35:19;;;;;;;44.85;23.83;;;0.30;99.90;;;;;;5052178;28;20111;-63
2023/01/20 06:37:45;;;;;;;43.20;22.73;;;0.40;99.90;;;;;;5052026;28;20072;-63
2023/01/20 06:40:11;;;;;;;46.00;24.20;;;0.40;99.90;;;;;;5052425;28;20080;-63
2023/01/20 06:42:37;;;;;;;57.22;26.30;;;0.30;99.90;;;;;;5035853;28;20481;-63
2023/01/20 06:45:03;;;;;;;42.55;21.52;;;0.40;99.90;;;;;;5051796;28;20037;-63
2023/01/20 06:47:28;;;;;;;44.28;23.40;;;0.40;99.90;;;;;;5052135;28;20040;-63
2023/01/20 06:49:54;;;;;;;48.30;23.17;;;0.30;99.90;;;;;;5052503;28;20124;-63
2023/01/20 06:52:19;;;;;;;48.40;24.98;;;0.40;99.90;;;;;;5052418;28;20044;-63
2023/01/20 06:54:45;;;;;;;43.83;22.90;;;0.30;99.90;;;;;;5053678;28;20044;-62
2023/01/20 06:57:11;;;;;;;47.97;23.25;;;0.30;99.90;;;;;;5053215;28;20048;-63
2023/01/20 06:59:36;;;;;;;46.28;23.08;;;0.30;99.90;;;;;;5053110;28;20040;-63
2023/01/20 07:02:06;;;;;;;56.88;26.83;;;0.30;99.90;;;;;;5052340;28;20091;-63
2023/01/20 07:04:31;;;;;;;46.10;23.13;;;0.30;99.90;;;;;;5052405;28;20102;-63
2023/01/20 07:06:57;;;;;;;52.75;27.00;;;0.40;99.90;;;;;;5052618;28;20033;-63
2023/01/20 07:09:22;;;;;;;45.05;23.60;;;0.30;99.90;;;;;;5052717;28;20090;-63
2023/01/20 07:11:48;;;;;;;44.90;24.02;;;0.40;99.90;;;;;;5046542;28;20378;-63
2023/01/20 07:14:14;;;;;;;53.17;27.92;;;0.40;99.90;;;;;;5055910;28;20052;-63
2023/01/20 07:16:39;;;;;;;57.58;27.55;;;0.40;99.90;;;;;;5052136;28;20131;-63
2023/01/20 07:19:05;;;;;;;50.70;24.52;;;0.40;99.90;;;;;;5044846;28;20033;-63
2023/01/20 07:21:31;;;;;;;54.35;24.88;;;0.30;99.90;;;;;;5049906;28;20091;-63
2023/01/20 07:24:01;;;;;;;53.08;27.13;;;0.40;99.90;;;;;;5044965;28;20128;-63
2023/01/20 07:26:28;;;;;;;53.45;28.58;;;0.40;99.90;;;;;;5016068;28;20389;-63
2023/01/20 07:28:54;;;;;;;64.00;29.35;;;0.40;99.90;;;;;;5047547;28;20541;-63
2023/01/20 07:31:22;;;;;;;65.18;31.55;;;0.40;99.90;;;;;;5049171;28;20112;-63
2023/01/20 07:33:48;;;;;;;63.67;31.75;;;0.40;99.90;;;;;;5042400;28;20048;-63
2023/01/20 07:36:15;;;;;;;67.32;31.45;;;0.40;99.90;;;;;;5048261;28;20049;-63
2023/01/20 07:38:41;;;;;;;73.03;30.50;;;0.50;99.90;;;;;;5030366;28;20092;-63
2023/01/20 07:41:10;;;;;;;63.30;30.50;;;0.50;99.90;;;;;;5031174;28;20060;-63
2023/01/20 07:43:36;;;;;;;65.57;29.52;;;0.50;99.90;;;;;;5044938;28;20416;-63
2023/01/20 07:46:03;;;;;;;59.05;28.33;;;0.50;99.90;;;;;;5028681;28;20133;-63
2023/01/20 07:48:31;;;;;;;54.95;29.45;;;0.50;99.90;;;;;;5038955;28;20036;-63
2023/01/20 07:51:04;;;;;;;65.00;30.98;;;0.50;99.90;;;;;;5028348;28;20508;-63
2023/01/20 07:53:35;;;;;;;60.08;29.75;;;0.60;99.90;;;;;;5037886;28;20036;-63
2023/01/20 07:56:04;;;;;;;52.13;26.33;;;0.50;99.90;;;;;;5030567;28;20053;-63
2023/01/20 07:58:30;;;;;;;57.63;26.85;;;0.60;99.90;;;;;;5046646;28;20061;-62
2023/01/20 08:00:56;;;;;;;62.40;27.02;;;0.60;99.90;;;;;;5050254;28;20076;-62
2023/01/20 08:03:22;;;;;;;58.80;30.40;;;0.60;99.90;;;;;;5033497;28;20636;-63
2023/01/20 08:05:47;;;;;;;59.70;30.45;;;0.60;99.90;;;;;;5029615;28;20564;-63
2023/01/20 08:08:13;;;;;;;65.63;30.13;;;0.60;99.90;;;;;;5013687;28;20077;-63
2023/01/20 08:10:39;;;;;;;63.00;29.27;;;0.60;99.90;;;;;;5032494;28;20056;-63
2023/01/20 08:13:05;;;;;;;56.10;26.83;;;0.60;99.90;;;;;;5041323;28;20056;-63
2023/01/20 08:15:30;;;;;;;52.67;27.42;;;0.60;99.90;;;;;;5048735;28;20037;-63
2023/01/20 08:17:58;;;;;;;58.75;28.30;;;0.70;99.90;;;;;;5046691;28;20132;-63
2023/01/20 08:20:23;;;;;;;57.30;28.45;;;0.70;99.90;;;;;;5047285;28;20045;-63
2023/01/20 08:22:49;;;;;;;66.25;28.00;;;0.70;99.90;;;;;;5048227;28;20048;-63
2023/01/20 08:25:15;;;;;;;62.05;28.50;;;0.70;99.90;;;;;;5038828;28;20472;-63
2023/01/20 08:27:40;;;;;;;58.40;28.05;;;0.70;99.90;;;;;;5028412;28;20466;-63
2023/01/20 08:30:07;;;;;;;63.75;30.15;;;0.70;99.90;;;;;;5010463;28;20072;-63
2023/01/20 08:32:32;;;;;;;64.40;29.75;;;0.80;99.90;;;;;;5028926;28;20141;-63
2023/01/20 08:34:58;;;;;;;66.82;29.33;;;0.70;99.90;;;;;;5019872;28;20084;-63
2023/01/20 08:37:24;;;;;;;69.43;31.15;;;0.80;99.90;;;;;;5033279;28;20132;-62
2023/01/20 08:39:50;;;;;;;64.80;30.67;;;0.70;99.90;;;;;;5031181;28;20405;-63
2023/01/20 08:42:15;;;;;;;59.95;28.85;;;0.70;99.90;;;;;;5037470;28;20084;-63
2023/01/20 08:44:41;;;;;;;57.75;28.08;;;0.80;99.90;;;;;;5010718;28;20041;-62
2023/01/20 08:47:07;;;;;;;61.63;27.23;;;0.80;99.90;;;;;;5039168;28;20052;-63
2023/01/20 08:49:32;;;;;;;58.38;27.70;;;0.80;99.90;;;;;;5049325;28;20032;-62
2023/01/20 08:51:58;;;;;;;51.83;27.80;;;0.80;99.90;;;;;;5029674;28;20123;-62
2023/01/20 08:54:24;;;;;;;56.35;25.92;;;0.80;99.90;;;;;;5027207;28;20098;-63
2023/01/20 08:56:52;;;;;;;54.97;24.85;;;0.80;99.90;;;;;;5010721;28;20048;-63
2023/01/20 08:59:19;;;;;;;50.70;25.38;;;0.80;99.90;;;;;;5045554;28;20500;-63
2023/01/20 09:01:45;;;;;;;53.88;25.45;;;0.80;99.90;;;;;;5049691;28;20078;-63
2023/01/20 09:04:11;;;;;;;55.22;24.35;;;0.90;99.90;;;;;;5048398;28;20044;-63
2023/01/20 09:06:38;;;;;;;48.40;25.58;;;0.90;99.90;;;;;;5067229;28;20047;-63
2023/01/20 09:09:04;;;;;;;55.58;25.88;;;0.90;99.90;;;;;;5053282;28;20064;-63
2023/01/20 09:11:30;;;;;;;51.38;25.20;;;0.90;99.90;;;;;;5051358;28;20479;-63
2023/01/20 09:13:56;;;;;;;55.22;26.30;;;0.90;99.90;;;;;;5049180;28;20405;-63
2023/01/20 09:16:22;;;;;;;51.88;24.58;;;0.90;99.90;;;;;;5031019;28;20072;-63
2023/01/20 09:18:47;;;;;;;50.17;25.65;;;0.90;99.90;;;;;;5032101;28;20084;-63
2023/01/20 09:21:13;;;;;;;52.72;26.05;;;1.00;99.90;;;;;;5033955;28;20037;-63
2023/01/20 09:23:40;;;;;;;57.95;26.42;;;0.90;99.90;;;;;;5039905;28;20042;-63
2023/01/20 09:26:06;;;;;;;57.92;27.20;;;1.00;99.90;;;;;;5030733;28;20083;-62
2023/01/20 09:28:32;;;;;;;51.72;26.50;;;1.00;99.90;;;;;;5042539;28;20052;-62
2023/01/20 09:31:03;;;;;;;53.95;27.27;;;1.00;99.90;;;;;;5034593;28;20044;-62
2023/01/20 09:33:30;;;;;;;48.22;24.73;;;1.10;99.90;;;;;;5050475;28;20098;-63
2023/01/20 09:35:57;;;;;;;51.45;25.80;;;1.10;99.90;;;;;;5064280;28;20124;-62
2023/01/20 09:44:44;;;;;;;55.65;25.92;;;1.20;99.90;;;;;;5049021;28;20049;-63
2023/01/20 09:47:20;;;;;;;53.92;24.95;;;1.20;99.90;;;;;;5050339;28;20044;-63
2023/01/20 09:55:44;;;;;;;51.97;25.50;;;1.20;99.90;;;;;;5049291;28;20091;-63
2023/01/20 09:58:28;;;;;;;51.55;24.50;;;1.30;99.90;;;;;;5033099;28;20052;-63
2023/01/20 10:01:18;;;;;;;47.83;23.17;;;1.30;99.90;;;;;;5017346;28;20377;-63
2023/01/20 10:03:58;;;;;;;53.55;24.60;;;1.30;99.90;;;;;;5039098;28;20041;-64
2023/01/20 10:06:44;;;;;;;52.10;23.73;;;1.30;99.90;;;;;;5053413;28;20036;-63
2023/01/20 10:09:26;;;;;;;57.40;25.17;;;1.40;99.90;;;;;;5053576;28;20087;-63
2023/01/20 10:12:09;;;;;;;51.20;23.52;;;1.30;99.90;;;;;;5049677;28;20072;-63
2023/01/20 10:14:42;;;;;;;50.67;24.35;;;1.40;99.90;;;;;;5036844;28;20401;-63
2023/01/20 10:17:22;;;;;;;53.85;24.35;;;1.40;99.90;;;;;;5034378;28;20046;-63
2023/01/20 10:20:02;;;;;;;49.75;22.45;;;1.40;99.90;;;;;;5035991;28;20037;-63
2023/01/20 10:22:31;;;;;;;50.47;24.98;;;1.40;99.90;;;;;;5040634;28;20082;-63
2023/01/20 10:25:04;;;;;;;48.17;21.00;;;1.50;99.90;;;;;;5048303;28;20036;-63
2023/01/20 10:27:31;;;;;;;45.35;22.08;;;1.50;99.90;;;;;;5054584;28;20049;-63
2023/01/20 10:30:10;;;;;;;48.70;22.95;;;1.50;99.90;;;;;;5035252;28;20052;-63
2023/01/20 10:32:39;;;;;;;43.00;22.58;;;1.50;99.90;;;;;;5050179;28;20516;-64
2023/01/20 10:35:18;;;;;;;44.35;22.15;;;1.50;99.90;;;;;;5051592;28;20053;-64
2023/01/20 10:37:44;;;;;;;47.17;21.70;;;1.60;99.90;;;;;;5052283;28;20533;-64
2023/01/20 10:40:30;;;;;;;42.63;21.73;;;1.50;99.90;;;;;;5050343;28;20044;-64
2023/01/20 10:42:58;;;;;;;45.88;21.48;;;1.60;99.90;;;;;;5041966;28;20045;-64
2023/01/20 10:46:06;;;;;;;44.42;20.33;;;1.60;99.90;;;;;;5032736;28;20068;-64
2023/01/20 10:48:50;;;;;;;43.70;20.05;;;1.60;99.90;;;;;;5034019;28;20112;-63
2023/01/20 10:51:25;;;;;;;41.78;19.70;;;1.70;99.90;;;;;;5015678;28;20443;-63
2023/01/20 10:54:15;;;;;;;39.00;19.02;;;1.70;99.90;;;;;;5045101;28;20038;-63
2023/01/20 10:56:52;;;;;;;42.80;21.52;;;1.70;99.90;;;;;;5049745;28;20056;-63
2023/01/20 10:59:27;;;;;;;45.40;22.15;;;1.70;99.90;;;;;;5048493;28;20052;-63
2023/01/20 11:01:56;;;;;;;42.53;20.13;;;1.80;99.90;;;;;;5049838;28;20076;-63
2023/01/20 11:04:22;;;;;;;44.10;20.67;;;1.80;99.90;;;;;;5031896;28;20132;-64
2023/01/20 11:06:53;;;;;;;42.22;21.35;;;1.80;99.90;;;;;;5049088;28;20174;-63
2023/01/20 11:09:26;;;;;;;39.92;21.67;;;1.80;99.90;;;;;;5031379;28;20040;-63
2023/01/20 11:11:52;;;;;;;51.80;23.40;;;1.80;99.90;;;;;;5041687;28;20603;-64
2023/01/20 11:14:19;;;;;;;39.63;21.83;;;1.90;99.90;;;;;;5025074;28;20046;-63
2023/01/20 11:16:49;;;;;;;45.13;21.48;;;1.90;99.90;;;;;;5049626;28;20047;-63
2023/01/20 11:19:15;;;;;;;42.50;20.88;;;1.90;99.90;;;;;;5055169;28;20033;-63
2023/01/20 11:21:41;;;;;;;43.65;22.45;;;1.90;99.90;;;;;;5050781;28;20044;-63
2023/01/20 11:24:41;;;;;;;47.75;22.88;;;1.90;99.90;;;;;;5050953;28;20057;-63
2023/01/20 11:27:15;;;;;;;43.33;22.55;;;1.90;99.90;;;;;;5043939;28;20037;-63
2023/01/20 11:30:05;;;;;;;49.70;22.13;;;1.90;99.90;;;;;;5019489;28;20084;-63
2023/01/20 11:32:36;;;;;;;42.38;21.77;;;1.90;99.90;;;;;;5030587;28;20513;-64
2023/01/20 11:35:23;;;;;;;46.20;22.42;;;1.90;99.90;;;;;;5047088;28;20262;-63
2023/01/20 11:37:50;;;;;;;44.08;21.40;;;1.90;99.90;;;;;;5042974;28;20049;-63
2023/01/20 11:40:25;;;;;;;42.47;20.35;;;1.90;99.90;;;;;;5047186;28;20068;-64
2023/01/20 11:42:52;;;;;;;42.70;20.00;;;1.90;99.90;;;;;;5063622;28;20493;-64
2023/01/20 11:45:35;;;;;;;43.53;20.20;;;1.90;99.90;;;;;;5029287;28;20049;-63
2023/01/20 11:48:12;;;;;;;46.25;20.13;;;2.00;99.90;;;;;;5030598;28;20033;-64
2023/01/20 11:50:53;;;;;;;37.97;19.80;;;2.00;99.90;;;;;;5050149;28;20041;-63
2023/01/20 11:53:26;;;;;;;44.83;21.52;;;2.00;99.90;;;;;;5044096;28;20036;-63
2023/01/20 11:55:56;;;;;;;36.20;19.45;;;2.00;99.90;;;;;;5021364;28;20582;-65
2023/01/20 11:58:28;;;;;;;40.75;21.13;;;2.00;99.90;;;;;;5046505;28;20102;-64
2023/01/20 12:01:17;;;;;;;45.55;21.17;;;2.00;99.90;;;;;;5038802;28;20040;-64
2023/01/20 12:03:43;;;;;;;39.35;18.88;;;2.00;99.90;;;;;;5035750;28;20037;-64
2023/01/20 12:06:12;;;;;;;36.08;19.60;;;2.00;99.90;;;;;;5048475;28;20095;-64
2023/01/20 12:08:52;;;;;;;41.40;20.23;;;2.00;99.90;;;;;;5047600;28;20803;-64
2023/01/20 12:11:30;;;;;;;35.10;18.15;;;2.00;99.90;;;;;;5047710;28;20041;-64
2023/01/20 12:14:24;;;;;;;31.08;16.77;;;2.10;99.90;;;;;;5031909;28;20651;-64
2023/01/20 12:17:01;;;;;;;32.78;17.65;;;2.10;99.90;;;;;;5024636;28;20047;-64
2023/01/20 12:19:43;;;;;;;35.38;17.48;;;2.10;99.90;;;;;;5044935;28;20458;-64
2023/01/20 12:22:14;;;;;;;40.45;19.35;;;2.00;99.90;;;;;;5027212;28;20049;-63
2023/01/20 12:25:07;;;;;;;29.90;16.55;;;2.00;99.90;;;;;;5011842;28;20053;-64
2023/01/20 12:27:41;;;;;;;34.60;17.05;;;2.10;99.90;;;;;;5031312;28;20051;-64
2023/01/20 12:30:37;;;;;;;31.30;15.20;;;2.10;99.90;;;;;;5035714;28;20122;-63
2023/01/20 12:33:03;;;;;;;34.50;16.88;;;2.10;99.90;;;;;;5029620;28;20568;-63
2023/01/20 12:35:45;;;;;;;34.97;16.42;;;2.00;99.90;;;;;;5048740;28;20061;-63
2023/01/20 12:38:18;;;;;;;27.77;15.45;;;2.00;99.90;;;;;;5038271;28;20124;-63
2023/01/20 12:40:50;;;;;;;28.17;15.10;;;2.10;99.90;;;;;;5035383;28;20063;-63
2023/01/20 12:43:41;;;;;;;28.83;15.48;;;2.10;99.90;;;;;;5062229;28;20124;-63
2023/01/20 12:46:18;;;;;;;33.20;15.90;;;2.10;99.90;;;;;;5046295;28;20126;-63
2023/01/20 12:48:52;;;;;;;28.25;15.05;;;2.00;99.90;;;;;;5023295;28;20102;-63
2023/01/20 12:51:34;;;;;;;30.75;17.33;;;2.00;99.90;;;;;;5034458;28;20029;-64
2023/01/20 12:54:20;;;;;;;31.60;14.93;;;2.10;99.90;;;;;;5052442;28;20041;-63
2023/01/20 12:57:20;;;;;;;28.98;14.88;;;2.10;99.90;;;;;;5047441;28;20057;-63
2023/01/20 13:00:04;;;;;;;30.35;15.57;;;2.00;99.90;;;;;;5033922;28;20056;-63
2023/01/20 13:03:05;;;;;;;28.92;14.55;;;2.10;99.90;;;;;;5033679;28;20041;-63
2023/01/20 13:05:56;;;;;;;27.23;13.93;;;2.00;99.90;;;;;;4987213;28;20049;-63
2023/01/20 13:08:35;;;;;;;30.50;15.02;;;2.00;99.90;;;;;;5046513;28;20081;-63
2023/01/20 13:11:21;;;;;;;29.90;16.52;;;2.00;99.90;;;;;;5045529;28;20513;-63